sensor_id;sensor_type;location;lat;lon;timestamp;pressure;altitude;pressure_sealevel;temperature;humidity
62632;BME280;48703;51.248;-0.546;2023-02-12T00:01:07;103163;;;7.28;84.65
62632;BME280;48703;51.248;-0.546;2023-02-12T00:04:09;103159;;;7.27;84.75
62632;BME280;48703;51.248;-0.546;2023-02-12T00:07:11;103158;;;7.27;85.33
62632;BME280;48703;51.248;-0.546;2023-02-12T00:10:13;103153;;;7.26;85.01
62632;BME280;48703;51.248;-0.546;2023-02-12T00:13:14;103152;;;7.26;85.00
62632;BME280;48703;51.248;-0.546;2023-02-12T00:16:17;103160;;;7.25;84.95
62632;BME280;48703;51.248;-0.546;2023-02-12T00:19:18;103161;;;7.26;84.54
62632;BME280;48703;51.248;-0.546;2023-02-12T00:22:20;103161;;;7.26;84.39
62632;BME280;48703;51.248;-0.546;2023-02-12T00:25:22;103164;;;7.26;84.23
62632;BME280;48703;51.248;-0.546;2023-02-12T00:28:24;103166;;;7.26;84.63
62632;BME280;48703;51.248;-0.546;2023-02-12T00:31:27;103161;;;7.25;84.78
62632;BME280;48703;51.248;-0.546;2023-02-12T00:34:28;103159;;;7.25;84.58
62632;BME280;48703;51.248;-0.546;2023-02-12T00:37:30;103162;;;7.26;84.10
62632;BME280;48703;51.248;-0.546;2023-02-12T00:40:32;103163;;;7.28;83.62
62632;BME280;48703;51.248;-0.546;2023-02-12T00:43:34;103163;;;7.29;83.30
62632;BME280;48703;51.248;-0.546;2023-02-12T00:46:36;103165;;;7.32;83.03
62632;BME280;48703;51.248;-0.546;2023-02-12T00:49:38;103163;;;7.32;83.15
62632;BME280;48703;51.248;-0.546;2023-02-12T00:52:39;103159;;;7.32;83.29
62632;BME280;48703;51.248;-0.546;2023-02-12T00:55:42;103158;;;7.32;83.23
62632;BME280;48703;51.248;-0.546;2023-02-12T00:58:43;103153;;;7.33;83.27
62632;BME280;48703;51.248;-0.546;2023-02-12T01:01:45;103155;;;7.33;82.92
62632;BME280;48703;51.248;-0.546;2023-02-12T01:04:47;103153;;;7.32;83.18
62632;BME280;48703;51.248;-0.546;2023-02-12T01:07:49;103149;;;7.32;83.14
62632;BME280;48703;51.248;-0.546;2023-02-12T01:10:54;103154;;;7.31;82.97
62632;BME280;48703;51.248;-0.546;2023-02-12T01:13:53;103157;;;7.30;83.20
62632;BME280;48703;51.248;-0.546;2023-02-12T01:16:01;103160;;;7.29;83.04
62632;BME280;48703;51.248;-0.546;2023-02-12T01:18:56;103159;;;7.29;83.35
62632;BME280;48703;51.248;-0.546;2023-02-12T01:21:58;103155;;;7.29;83.22
62632;BME280;48703;51.248;-0.546;2023-02-12T01:25:00;103159;;;7.29;83.04
62632;BME280;48703;51.248;-0.546;2023-02-12T01:28:02;103154;;;7.29;82.81
62632;BME280;48703;51.248;-0.546;2023-02-12T01:31:07;103156;;;7.28;82.94
62632;BME280;48703;51.248;-0.546;2023-02-12T01:34:06;103158;;;7.27;83.18
62632;BME280;48703;51.248;-0.546;2023-02-12T01:37:08;103155;;;7.26;83.21
62632;BME280;48703;51.248;-0.546;2023-02-12T01:40:10;103155;;;7.26;83.51
62632;BME280;48703;51.248;-0.546;2023-02-12T01:43:11;103155;;;7.25;83.28
62632;BME280;48703;51.248;-0.546;2023-02-12T01:46:13;103150;;;7.25;83.48
62632;BME280;48703;51.248;-0.546;2023-02-12T01:49:16;103148;;;7.25;83.29
62632;BME280;48703;51.248;-0.546;2023-02-12T01:52:19;103150;;;7.24;83.27
62632;BME280;48703;51.248;-0.546;2023-02-12T01:55:19;103146;;;7.24;83.04
62632;BME280;48703;51.248;-0.546;2023-02-12T01:58:21;103147;;;7.23;83.12
62632;BME280;48703;51.248;-0.546;2023-02-12T02:01:24;103152;;;7.23;83.03
62632;BME280;48703;51.248;-0.546;2023-02-12T02:04:26;103154;;;7.23;82.98
62632;BME280;48703;51.248;-0.546;2023-02-12T02:07:27;103149;;;7.21;82.89
62632;BME280;48703;51.248;-0.546;2023-02-12T02:10:29;103151;;;7.20;82.78
62632;BME280;48703;51.248;-0.546;2023-02-12T02:13:31;103155;;;7.20;83.29
62632;BME280;48703;51.248;-0.546;2023-02-12T02:16:33;103153;;;7.19;83.44
62632;BME280;48703;51.248;-0.546;2023-02-12T02:19:42;103150;;;7.18;83.45
62632;BME280;48703;51.248;-0.546;2023-02-12T02:22:36;103152;;;7.17;83.70
62632;BME280;48703;51.248;-0.546;2023-02-12T02:26:49;103158;;;7.15;83.92
62632;BME280;48703;51.248;-0.546;2023-02-12T02:30:42;103151;;;7.13;84.13
62632;BME280;48703;51.248;-0.546;2023-02-12T02:33:46;103150;;;7.14;83.89
62632;BME280;48703;51.248;-0.546;2023-02-12T02:36:46;103151;;;7.12;83.71
62632;BME280;48703;51.248;-0.546;2023-02-12T02:39:48;103151;;;7.11;84.08
62632;BME280;48703;51.248;-0.546;2023-02-12T02:42:51;103150;;;7.07;83.87
62632;BME280;48703;51.248;-0.546;2023-02-12T02:45:52;103151;;;7.08;84.09
62632;BME280;48703;51.248;-0.546;2023-02-12T02:48:55;103147;;;7.09;84.03
62632;BME280;48703;51.248;-0.546;2023-02-12T02:51:56;103142;;;7.09;84.06
62632;BME280;48703;51.248;-0.546;2023-02-12T02:54:57;103141;;;7.09;84.04
62632;BME280;48703;51.248;-0.546;2023-02-12T02:57:59;103142;;;7.07;84.24
62632;BME280;48703;51.248;-0.546;2023-02-12T03:01:01;103138;;;7.07;84.00
62632;BME280;48703;51.248;-0.546;2023-02-12T03:04:03;103135;;;7.05;84.21
62632;BME280;48703;51.248;-0.546;2023-02-12T03:07:05;103133;;;7.01;83.95
62632;BME280;48703;51.248;-0.546;2023-02-12T03:10:09;103127;;;7.01;84.07
62632;BME280;48703;51.248;-0.546;2023-02-12T03:13:09;103126;;;7.00;84.20
62632;BME280;48703;51.248;-0.546;2023-02-12T03:16:12;103131;;;7.00;84.25
62632;BME280;48703;51.248;-0.546;2023-02-12T03:19:13;103127;;;7.00;84.56
62632;BME280;48703;51.248;-0.546;2023-02-12T03:22:15;103126;;;6.98;84.51
62632;BME280;48703;51.248;-0.546;2023-02-12T03:25:17;103123;;;6.98;84.40
62632;BME280;48703;51.248;-0.546;2023-02-12T03:28:19;103123;;;6.95;84.29
62632;BME280;48703;51.248;-0.546;2023-02-12T03:31:23;103120;;;6.96;84.46
62632;BME280;48703;51.248;-0.546;2023-02-12T03:34:24;103116;;;6.95;84.52
62632;BME280;48703;51.248;-0.546;2023-02-12T03:37:26;103113;;;6.93;84.86
62632;BME280;48703;51.248;-0.546;2023-02-12T03:40:27;103116;;;6.91;84.86
62632;BME280;48703;51.248;-0.546;2023-02-12T03:43:29;103119;;;6.90;84.90
62632;BME280;48703;51.248;-0.546;2023-02-12T03:46:31;103120;;;6.90;84.86
62632;BME280;48703;51.248;-0.546;2023-02-12T03:49:33;103117;;;6.92;84.49
62632;BME280;48703;51.248;-0.546;2023-02-12T03:52:33;103112;;;6.92;84.67
62632;BME280;48703;51.248;-0.546;2023-02-12T03:55:36;103110;;;6.91;84.73
62632;BME280;48703;51.248;-0.546;2023-02-12T03:58:37;103110;;;6.89;84.85
62632;BME280;48703;51.248;-0.546;2023-02-12T04:01:39;103108;;;6.89;84.87
62632;BME280;48703;51.248;-0.546;2023-02-12T04:04:42;103110;;;6.88;84.84
62632;BME280;48703;51.248;-0.546;2023-02-12T04:07:43;103109;;;6.88;85.05
62632;BME280;48703;51.248;-0.546;2023-02-12T04:10:48;103107;;;6.86;85.07
62632;BME280;48703;51.248;-0.546;2023-02-12T04:13:49;103110;;;6.84;85.60
62632;BME280;48703;51.248;-0.546;2023-02-12T04:16:50;103113;;;6.83;85.43
62632;BME280;48703;51.248;-0.546;2023-02-12T04:19:54;103114;;;6.82;85.51
62632;BME280;48703;51.248;-0.546;2023-02-12T04:22:54;103112;;;6.83;85.50
62632;BME280;48703;51.248;-0.546;2023-02-12T04:25:56;103114;;;6.81;85.70
62632;BME280;48703;51.248;-0.546;2023-02-12T04:28:59;103120;;;6.82;85.60
62632;BME280;48703;51.248;-0.546;2023-02-12T04:32:03;103119;;;6.80;85.86
62632;BME280;48703;51.248;-0.546;2023-02-12T04:35:01;103120;;;6.78;85.81
62632;BME280;48703;51.248;-0.546;2023-02-12T04:38:04;103122;;;6.76;85.75
62632;BME280;48703;51.248;-0.546;2023-02-12T04:41:04;103119;;;6.75;86.22
62632;BME280;48703;51.248;-0.546;2023-02-12T04:44:15;103116;;;6.76;85.92
62632;BME280;48703;51.248;-0.546;2023-02-12T04:47:09;103115;;;6.75;85.87
62632;BME280;48703;51.248;-0.546;2023-02-12T04:50:10;103116;;;6.73;86.01
62632;BME280;48703;51.248;-0.546;2023-02-12T04:53:12;103119;;;6.73;85.78
62632;BME280;48703;51.248;-0.546;2023-02-12T04:56:14;103118;;;6.71;85.76
62632;BME280;48703;51.248;-0.546;2023-02-12T04:59:16;103116;;;6.71;85.98
62632;BME280;48703;51.248;-0.546;2023-02-12T05:02:17;103117;;;6.71;85.75
62632;BME280;48703;51.248;-0.546;2023-02-12T05:05:20;103116;;;6.69;86.11
62632;BME280;48703;51.248;-0.546;2023-02-12T05:08:21;103114;;;6.69;85.95
62632;BME280;48703;51.248;-0.546;2023-02-12T05:11:23;103117;;;6.69;86.06
62632;BME280;48703;51.248;-0.546;2023-02-12T05:14:25;103113;;;6.68;85.93
62632;BME280;48703;51.248;-0.546;2023-02-12T05:17:27;103110;;;6.69;85.97
62632;BME280;48703;51.248;-0.546;2023-02-12T05:20:29;103110;;;6.67;85.94
62632;BME280;48703;51.248;-0.546;2023-02-12T05:23:32;103105;;;6.64;86.02
62632;BME280;48703;51.248;-0.546;2023-02-12T05:26:33;103107;;;6.66;85.88
62632;BME280;48703;51.248;-0.546;2023-02-12T05:29:35;103108;;;6.67;85.83
62632;BME280;48703;51.248;-0.546;2023-02-12T05:32:37;103107;;;6.67;86.09
62632;BME280;48703;51.248;-0.546;2023-02-12T05:35:39;103112;;;6.66;85.97
62632;BME280;48703;51.248;-0.546;2023-02-12T05:38:41;103112;;;6.66;85.88
62632;BME280;48703;51.248;-0.546;2023-02-12T05:41:42;103108;;;6.69;85.94
62632;BME280;48703;51.248;-0.546;2023-02-12T05:44:44;103104;;;6.63;86.07
62632;BME280;48703;51.248;-0.546;2023-02-12T05:47:46;103108;;;6.61;86.34
62632;BME280;48703;51.248;-0.546;2023-02-12T05:50:48;103109;;;6.59;86.19
62632;BME280;48703;51.248;-0.546;2023-02-12T05:53:51;103103;;;6.61;86.32
62632;BME280;48703;51.248;-0.546;2023-02-12T05:56:52;103107;;;6.62;86.06
62632;BME280;48703;51.248;-0.546;2023-02-12T05:59:54;103113;;;6.65;85.95
62632;BME280;48703;51.248;-0.546;2023-02-12T06:02:56;103111;;;6.62;86.15
62632;BME280;48703;51.248;-0.546;2023-02-12T06:05:58;103109;;;6.60;86.19
62632;BME280;48703;51.248;-0.546;2023-02-12T06:09:00;103109;;;6.58;86.01
62632;BME280;48703;51.248;-0.546;2023-02-12T06:12:02;103117;;;6.59;86.04
62632;BME280;48703;51.248;-0.546;2023-02-12T06:15:04;103115;;;6.57;86.12
62632;BME280;48703;51.248;-0.546;2023-02-12T06:18:06;103113;;;6.59;86.08
62632;BME280;48703;51.248;-0.546;2023-02-12T06:21:07;103114;;;6.59;86.36
62632;BME280;48703;51.248;-0.546;2023-02-12T06:24:10;103112;;;6.57;86.17
62632;BME280;48703;51.248;-0.546;2023-02-12T06:27:11;103111;;;6.56;86.41
62632;BME280;48703;51.248;-0.546;2023-02-12T06:30:14;103106;;;6.57;86.41
62632;BME280;48703;51.248;-0.546;2023-02-12T06:33:15;103102;;;6.56;86.51
62632;BME280;48703;51.248;-0.546;2023-02-12T06:36:17;103097;;;6.54;86.33
62632;BME280;48703;51.248;-0.546;2023-02-12T06:39:19;103095;;;6.55;86.19
62632;BME280;48703;51.248;-0.546;2023-02-12T06:42:21;103096;;;6.55;86.37
62632;BME280;48703;51.248;-0.546;2023-02-12T06:45:23;103096;;;6.54;86.52
62632;BME280;48703;51.248;-0.546;2023-02-12T06:48:25;103096;;;6.53;86.52
62632;BME280;48703;51.248;-0.546;2023-02-12T06:51:27;103096;;;6.50;86.52
62632;BME280;48703;51.248;-0.546;2023-02-12T06:54:29;103094;;;6.51;86.51
62632;BME280;48703;51.248;-0.546;2023-02-12T06:57:30;103092;;;6.52;86.50
62632;BME280;48703;51.248;-0.546;2023-02-12T07:00:32;103092;;;6.50;86.66
62632;BME280;48703;51.248;-0.546;2023-02-12T07:03:34;103097;;;6.52;86.74
62632;BME280;48703;51.248;-0.546;2023-02-12T07:06:36;103093;;;6.53;86.52
62632;BME280;48703;51.248;-0.546;2023-02-12T07:09:38;103090;;;6.51;86.76
62632;BME280;48703;51.248;-0.546;2023-02-12T07:12:40;103095;;;6.50;86.66
62632;BME280;48703;51.248;-0.546;2023-02-12T07:15:42;103095;;;6.51;86.90
62632;BME280;48703;51.248;-0.546;2023-02-12T07:18:44;103095;;;6.50;87.10
62632;BME280;48703;51.248;-0.546;2023-02-12T07:21:46;103105;;;6.49;86.73
62632;BME280;48703;51.248;-0.546;2023-02-12T07:24:48;103106;;;6.49;86.86
62632;BME280;48703;51.248;-0.546;2023-02-12T07:27:50;103107;;;6.49;86.84
62632;BME280;48703;51.248;-0.546;2023-02-12T07:30:52;103108;;;6.49;86.64
62632;BME280;48703;51.248;-0.546;2023-02-12T07:33:54;103108;;;6.52;86.57
62632;BME280;48703;51.248;-0.546;2023-02-12T07:36:55;103111;;;6.54;86.56
62632;BME280;48703;51.248;-0.546;2023-02-12T07:39:57;103113;;;6.56;86.60
62632;BME280;48703;51.248;-0.546;2023-02-12T07:42:59;103112;;;6.59;86.54
62632;BME280;48703;51.248;-0.546;2023-02-12T07:46:05;103111;;;6.61;86.46
62632;BME280;48703;51.248;-0.546;2023-02-12T07:49:04;103115;;;6.64;86.48
62632;BME280;48703;51.248;-0.546;2023-02-12T07:52:05;103117;;;6.68;86.45
62632;BME280;48703;51.248;-0.546;2023-02-12T07:55:07;103120;;;6.70;86.52
62632;BME280;48703;51.248;-0.546;2023-02-12T07:58:09;103119;;;6.72;86.59
62632;BME280;48703;51.248;-0.546;2023-02-12T08:01:12;103120;;;6.75;86.58
62632;BME280;48703;51.248;-0.546;2023-02-12T08:04:13;103121;;;6.77;86.69
62632;BME280;48703;51.248;-0.546;2023-02-12T08:07:15;103119;;;6.80;86.60
62632;BME280;48703;51.248;-0.546;2023-02-12T08:10:17;103120;;;6.82;86.61
62632;BME280;48703;51.248;-0.546;2023-02-12T08:13:18;103118;;;6.84;86.52
62632;BME280;48703;51.248;-0.546;2023-02-12T08:16:21;103119;;;6.88;86.32
62632;BME280;48703;51.248;-0.546;2023-02-12T08:19:22;103123;;;6.90;86.23
62632;BME280;48703;51.248;-0.546;2023-02-12T08:22:24;103127;;;6.91;86.22
62632;BME280;48703;51.248;-0.546;2023-02-12T08:25:26;103126;;;6.92;86.39
62632;BME280;48703;51.248;-0.546;2023-02-12T08:28:28;103124;;;6.95;86.30
62632;BME280;48703;51.248;-0.546;2023-02-12T08:31:30;103126;;;6.97;86.28
62632;BME280;48703;51.248;-0.546;2023-02-12T08:34:33;103125;;;6.98;86.22
62632;BME280;48703;51.248;-0.546;2023-02-12T08:37:34;103126;;;7.01;86.18
62632;BME280;48703;51.248;-0.546;2023-02-12T08:40:36;103134;;;7.05;86.11
62632;BME280;48703;51.248;-0.546;2023-02-12T08:43:38;103134;;;7.08;86.08
62632;BME280;48703;51.248;-0.546;2023-02-12T08:46:42;103134;;;7.10;86.32
62632;BME280;48703;51.248;-0.546;2023-02-12T08:49:41;103134;;;7.12;86.42
62632;BME280;48703;51.248;-0.546;2023-02-12T08:52:43;103133;;;7.16;86.78
62632;BME280;48703;51.248;-0.546;2023-02-12T08:55:47;103131;;;7.19;86.56
62632;BME280;48703;51.248;-0.546;2023-02-12T08:58:48;103138;;;7.22;86.49
62632;BME280;48703;51.248;-0.546;2023-02-12T09:01:50;103141;;;7.26;86.10
62632;BME280;48703;51.248;-0.546;2023-02-12T09:04:51;103142;;;7.28;85.91
62632;BME280;48703;51.248;-0.546;2023-02-12T09:07:53;103143;;;7.30;85.96
62632;BME280;48703;51.248;-0.546;2023-02-12T09:10:55;103143;;;7.32;85.80
62632;BME280;48703;51.248;-0.546;2023-02-12T09:13:58;103142;;;7.33;85.96
62632;BME280;48703;51.248;-0.546;2023-02-12T09:16:59;103142;;;7.35;86.08
62632;BME280;48703;51.248;-0.546;2023-02-12T09:20:01;103145;;;7.38;86.12
62632;BME280;48703;51.248;-0.546;2023-02-12T09:23:03;103148;;;7.39;86.18
62632;BME280;48703;51.248;-0.546;2023-02-12T09:26:05;103147;;;7.40;86.41
62632;BME280;48703;51.248;-0.546;2023-02-12T09:29:06;103146;;;7.40;86.66
62632;BME280;48703;51.248;-0.546;2023-02-12T09:32:08;103143;;;7.39;86.86
62632;BME280;48703;51.248;-0.546;2023-02-12T09:35:10;103148;;;7.39;87.03
62632;BME280;48703;51.248;-0.546;2023-02-12T09:38:12;103146;;;7.40;87.15
62632;BME280;48703;51.248;-0.546;2023-02-12T09:41:26;103145;;;7.42;86.98
62632;BME280;48703;51.248;-0.546;2023-02-12T09:44:18;103146;;;7.43;86.98
62632;BME280;48703;51.248;-0.546;2023-02-12T09:47:19;103150;;;7.44;86.86
62632;BME280;48703;51.248;-0.546;2023-02-12T09:50:28;103153;;;7.42;86.93
62632;BME280;48703;51.248;-0.546;2023-02-12T09:53:22;103154;;;7.42;87.04
62632;BME280;48703;51.248;-0.546;2023-02-12T09:56:24;103152;;;7.41;87.21
62632;BME280;48703;51.248;-0.546;2023-02-12T09:59:27;103152;;;7.41;87.34
62632;BME280;48703;51.248;-0.546;2023-02-12T10:02:28;103151;;;7.42;87.30
62632;BME280;48703;51.248;-0.546;2023-02-12T10:05:31;103152;;;7.42;87.30
62632;BME280;48703;51.248;-0.546;2023-02-12T10:08:36;103155;;;7.42;87.30
62632;BME280;48703;51.248;-0.546;2023-02-12T10:11:39;103157;;;7.42;87.40
62632;BME280;48703;51.248;-0.546;2023-02-12T10:14:45;103159;;;7.42;87.25
62632;BME280;48703;51.248;-0.546;2023-02-12T10:17:39;103158;;;7.41;87.18
62632;BME280;48703;51.248;-0.546;2023-02-12T10:20:44;103155;;;7.39;87.29
62632;BME280;48703;51.248;-0.546;2023-02-12T10:23:46;103154;;;7.40;87.34
62632;BME280;48703;51.248;-0.546;2023-02-12T10:26:44;103154;;;7.42;87.41
62632;BME280;48703;51.248;-0.546;2023-02-12T10:29:45;103153;;;7.45;87.35
62632;BME280;48703;51.248;-0.546;2023-02-12T10:32:48;103159;;;7.48;87.54
62632;BME280;48703;51.248;-0.546;2023-02-12T10:35:49;103157;;;7.53;87.38
62632;BME280;48703;51.248;-0.546;2023-02-12T10:38:52;103158;;;7.58;87.20
62632;BME280;48703;51.248;-0.546;2023-02-12T10:41:54;103157;;;7.60;87.09
62632;BME280;48703;51.248;-0.546;2023-02-12T10:44:54;103154;;;7.64;86.98
62632;BME280;48703;51.248;-0.546;2023-02-12T10:48:02;103156;;;7.67;87.29
62632;BME280;48703;51.248;-0.546;2023-02-12T10:51:03;103155;;;7.69;87.28
62632;BME280;48703;51.248;-0.546;2023-02-12T10:54:30;103157;;;7.72;86.71
62632;BME280;48703;51.248;-0.546;2023-02-12T10:57:05;103161;;;7.74;86.59
62632;BME280;48703;51.248;-0.546;2023-02-12T11:00:13;103158;;;7.78;85.99
62632;BME280;48703;51.248;-0.546;2023-02-12T11:03:17;103153;;;7.80;85.74
62632;BME280;48703;51.248;-0.546;2023-02-12T11:06:11;103156;;;7.84;85.48
62632;BME280;48703;51.248;-0.546;2023-02-12T11:09:17;103152;;;7.85;85.75
62632;BME280;48703;51.248;-0.546;2023-02-12T11:12:16;103150;;;7.87;85.34
62632;BME280;48703;51.248;-0.546;2023-02-12T11:15:14;103151;;;7.90;85.41
62632;BME280;48703;51.248;-0.546;2023-02-12T11:18:19;103147;;;7.92;85.13
62632;BME280;48703;51.248;-0.546;2023-02-12T11:21:21;103150;;;7.94;84.51
62632;BME280;48703;51.248;-0.546;2023-02-12T11:24:36;103146;;;7.93;83.64
62632;BME280;48703;51.248;-0.546;2023-02-12T11:27:22;103145;;;7.93;83.84
62632;BME280;48703;51.248;-0.546;2023-02-12T11:30:23;103141;;;7.93;83.68
62632;BME280;48703;51.248;-0.546;2023-02-12T11:33:27;103140;;;7.93;83.33
62632;BME280;48703;51.248;-0.546;2023-02-12T11:36:27;103141;;;7.91;83.46
62632;BME280;48703;51.248;-0.546;2023-02-12T11:39:30;103139;;;7.91;83.57
62632;BME280;48703;51.248;-0.546;2023-02-12T11:42:32;103141;;;7.93;83.66
62632;BME280;48703;51.248;-0.546;2023-02-12T11:45:33;103137;;;7.93;83.91
62632;BME280;48703;51.248;-0.546;2023-02-12T11:48:36;103132;;;7.93;84.11
62632;BME280;48703;51.248;-0.546;2023-02-12T11:51:37;103137;;;7.93;84.45
62632;BME280;48703;51.248;-0.546;2023-02-12T11:54:39;103133;;;7.93;84.47
62632;BME280;48703;51.248;-0.546;2023-02-12T11:57:42;103132;;;7.92;84.52
62632;BME280;48703;51.248;-0.546;2023-02-12T12:00:44;103135;;;7.90;84.74
62632;BME280;48703;51.248;-0.546;2023-02-12T12:03:47;103136;;;7.89;85.12
62632;BME280;48703;51.248;-0.546;2023-02-12T12:06:47;103135;;;7.90;85.35
62632;BME280;48703;51.248;-0.546;2023-02-12T12:09:49;103130;;;7.88;86.38
62632;BME280;48703;51.248;-0.546;2023-02-12T12:12:51;103124;;;7.89;85.99
62632;BME280;48703;51.248;-0.546;2023-02-12T12:15:54;103125;;;7.89;86.18
62632;BME280;48703;51.248;-0.546;2023-02-12T12:18:55;103123;;;7.91;86.17
62632;BME280;48703;51.248;-0.546;2023-02-12T12:21:57;103116;;;7.93;85.96
62632;BME280;48703;51.248;-0.546;2023-02-12T12:24:59;103111;;;7.95;86.06
62632;BME280;48703;51.248;-0.546;2023-02-12T12:28:01;103110;;;7.98;86.01
62632;BME280;48703;51.248;-0.546;2023-02-12T12:31:04;103104;;;7.98;86.75
62632;BME280;48703;51.248;-0.546;2023-02-12T12:34:05;103102;;;7.99;86.32
62632;BME280;48703;51.248;-0.546;2023-02-12T12:37:11;103100;;;7.98;86.52
62632;BME280;48703;51.248;-0.546;2023-02-12T12:40:15;103095;;;8.01;86.46
62632;BME280;48703;51.248;-0.546;2023-02-12T12:43:11;103093;;;8.01;86.87
62632;BME280;48703;51.248;-0.546;2023-02-12T12:46:16;103087;;;8.03;86.25
62632;BME280;48703;51.248;-0.546;2023-02-12T12:49:18;103080;;;8.05;85.88
62632;BME280;48703;51.248;-0.546;2023-02-12T12:52:23;103079;;;8.05;86.15
62632;BME280;48703;51.248;-0.546;2023-02-12T12:55:21;103080;;;8.06;86.62
62632;BME280;48703;51.248;-0.546;2023-02-12T12:58:22;103079;;;8.08;86.40
62632;BME280;48703;51.248;-0.546;2023-02-12T13:01:28;103072;;;8.10;86.71
62632;BME280;48703;51.248;-0.546;2023-02-12T13:05:00;103065;;;8.14;86.28
62632;BME280;48703;51.248;-0.546;2023-02-12T13:07:29;103059;;;8.17;86.54
62632;BME280;48703;51.248;-0.546;2023-02-12T13:10:28;103057;;;8.19;86.61
62632;BME280;48703;51.248;-0.546;2023-02-12T13:13:30;103056;;;8.22;87.08
62632;BME280;48703;51.248;-0.546;2023-02-12T13:16:32;103058;;;8.25;87.06
62632;BME280;48703;51.248;-0.546;2023-02-12T13:19:35;103060;;;8.26;87.03
62632;BME280;48703;51.248;-0.546;2023-02-12T13:22:35;103057;;;8.27;87.03
62632;BME280;48703;51.248;-0.546;2023-02-12T13:25:38;103054;;;8.29;87.01
62632;BME280;48703;51.248;-0.546;2023-02-12T13:28:39;103051;;;8.31;86.79
62632;BME280;48703;51.248;-0.546;2023-02-12T13:31:43;103052;;;8.30;86.69
62632;BME280;48703;51.248;-0.546;2023-02-12T13:34:42;103056;;;8.32;86.41
62632;BME280;48703;51.248;-0.546;2023-02-12T13:37:44;103051;;;8.32;86.24
62632;BME280;48703;51.248;-0.546;2023-02-12T13:40:46;103048;;;8.29;86.79
62632;BME280;48703;51.248;-0.546;2023-02-12T13:43:52;103045;;;8.30;86.98
62632;BME280;48703;51.248;-0.546;2023-02-12T13:46:51;103039;;;8.28;87.32
62632;BME280;48703;51.248;-0.546;2023-02-12T13:49:53;103038;;;8.29;87.56
62632;BME280;48703;51.248;-0.546;2023-02-12T13:52:54;103037;;;8.28;87.40
62632;BME280;48703;51.248;-0.546;2023-02-12T13:56:00;103036;;;8.27;86.69
62632;BME280;48703;51.248;-0.546;2023-02-12T13:58:59;103033;;;8.26;86.87
62632;BME280;48703;51.248;-0.546;2023-02-12T14:02:00;103029;;;8.27;86.83
62632;BME280;48703;51.248;-0.546;2023-02-12T14:05:02;103023;;;8.28;86.76
62632;BME280;48703;51.248;-0.546;2023-02-12T14:08:03;103020;;;8.25;86.86
62632;BME280;48703;51.248;-0.546;2023-02-12T14:11:06;103018;;;8.22;87.23
62632;BME280;48703;51.248;-0.546;2023-02-12T14:14:07;103021;;;8.22;87.15
62632;BME280;48703;51.248;-0.546;2023-02-12T14:17:50;103019;;;8.22;87.56
62632;BME280;48703;51.248;-0.546;2023-02-12T14:20:20;103017;;;8.21;87.27
62632;BME280;48703;51.248;-0.546;2023-02-12T14:23:21;103017;;;8.19;87.54
62632;BME280;48703;51.248;-0.546;2023-02-12T14:26:15;103015;;;8.21;87.06
62632;BME280;48703;51.248;-0.546;2023-02-12T14:29:17;103014;;;8.20;87.16
62632;BME280;48703;51.248;-0.546;2023-02-12T14:33:25;103011;;;8.19;87.69
62632;BME280;48703;51.248;-0.546;2023-02-12T14:35:37;103010;;;8.18;87.43
62632;BME280;48703;51.248;-0.546;2023-02-12T14:38:55;103009;;;8.17;87.27
62632;BME280;48703;51.248;-0.546;2023-02-12T14:41:25;103005;;;8.17;87.19
62632;BME280;48703;51.248;-0.546;2023-02-12T14:44:36;103005;;;8.16;87.16
62632;BME280;48703;51.248;-0.546;2023-02-12T14:50:35;103005;;;8.15;87.44
62632;BME280;48703;51.248;-0.546;2023-02-12T14:53:33;103002;;;8.16;87.17
62632;BME280;48703;51.248;-0.546;2023-02-12T14:56:38;102999;;;8.17;87.21
62632;BME280;48703;51.248;-0.546;2023-02-12T14:59:37;102996;;;8.16;87.44
62632;BME280;48703;51.248;-0.546;2023-02-12T15:02:38;102992;;;8.18;87.16
62632;BME280;48703;51.248;-0.546;2023-02-12T15:05:40;102985;;;8.17;86.84
62632;BME280;48703;51.248;-0.546;2023-02-12T15:08:44;102983;;;8.16;87.06
62632;BME280;48703;51.248;-0.546;2023-02-12T15:11:44;102984;;;8.16;87.46
62632;BME280;48703;51.248;-0.546;2023-02-12T15:14:47;102981;;;8.15;87.05
62632;BME280;48703;51.248;-0.546;2023-02-12T15:17:50;102982;;;8.14;87.02
62632;BME280;48703;51.248;-0.546;2023-02-12T15:20:49;102978;;;8.14;86.71
62632;BME280;48703;51.248;-0.546;2023-02-12T15:24:07;102977;;;8.11;86.94
62632;BME280;48703;51.248;-0.546;2023-02-12T15:26:54;102976;;;8.11;86.77
62632;BME280;48703;51.248;-0.546;2023-02-12T15:29:55;102973;;;8.13;86.55
62632;BME280;48703;51.248;-0.546;2023-02-12T15:32:58;102973;;;8.12;86.55
62632;BME280;48703;51.248;-0.546;2023-02-12T15:35:59;102970;;;8.11;86.38
62632;BME280;48703;51.248;-0.546;2023-02-12T15:39:02;102967;;;8.09;86.63
62632;BME280;48703;51.248;-0.546;2023-02-12T15:42:03;102967;;;8.05;86.72
62632;BME280;48703;51.248;-0.546;2023-02-12T15:45:07;102967;;;8.04;86.74
62632;BME280;48703;51.248;-0.546;2023-02-12T15:48:10;102967;;;8.02;86.68
62632;BME280;48703;51.248;-0.546;2023-02-12T15:51:09;102965;;;8.00;86.91
62632;BME280;48703;51.248;-0.546;2023-02-12T15:54:10;102958;;;7.99;86.98
62632;BME280;48703;51.248;-0.546;2023-02-12T15:57:13;102954;;;7.96;87.18
62632;BME280;48703;51.248;-0.546;2023-02-12T16:00:22;102952;;;7.93;87.71
62632;BME280;48703;51.248;-0.546;2023-02-12T16:03:18;102953;;;7.92;87.09
62632;BME280;48703;51.248;-0.546;2023-02-12T16:06:18;102954;;;7.93;86.75
62632;BME280;48703;51.248;-0.546;2023-02-12T16:09:21;102954;;;7.91;86.84
62632;BME280;48703;51.248;-0.546;2023-02-12T16:12:23;102957;;;7.89;86.66
62632;BME280;48703;51.248;-0.546;2023-02-12T16:15:25;102955;;;7.85;86.85
62632;BME280;48703;51.248;-0.546;2023-02-12T16:18:26;102952;;;7.83;86.63
62632;BME280;48703;51.248;-0.546;2023-02-12T16:21:28;102951;;;7.84;86.57
62632;BME280;48703;51.248;-0.546;2023-02-12T16:24:31;102953;;;7.83;86.27
62632;BME280;48703;51.248;-0.546;2023-02-12T16:27:32;102955;;;7.82;86.29
62632;BME280;48703;51.248;-0.546;2023-02-12T16:30:34;102951;;;7.80;86.21
62632;BME280;48703;51.248;-0.546;2023-02-12T16:33:40;102950;;;7.78;85.84